Latest Weather Observations for Rutherglen RS

IDV60801

Issued at 7:05 pm EST Tuesday 2 September 2014 (issued every 30 minutes, with the page automatically refreshed every 10 minutes)

About weather observations | Map of weather stations | Latest weather observations for VIC | Other Formats
Station Details ID: 082039 Name: RUTHERGLEN RESEARCH Lat: -36.10 Lon: 146.51 Height: 175.0 m
Data from the previous 72 hours. | See also: Recent months at Rutherglen RS
Date/Time
EST
Temp
°C
App
Temp
°C
Dew
Point
Rel
Hum
%
Delta-T
°C
Wind Press
QNH
hPa
Press
MSL
hPa
Rain
since 9 am
mm
Dir
 
Spd
km/h
Gust
km/h
Spd
kts
Gust
kts
02/07:00pm 7.6 4.7 4.6 81 1.3 SSW 9 13 5 7 - - 0.2
02/06:30pm 7.7 4.4 4.5 80 1.4 SW 11 17 6 9 - - 0.2
02/06:00pm 8.2 4.5 4.4 77 1.7 SW 13 19 7 10 - - 0.2
02/05:30pm 10.6 7.3 4.7 67 2.7 SSW 11 19 6 10 - - 0.2
02/05:00pm 10.6 5.9 5.2 69 2.5 SSW 19 28 10 15 - - 0.2
02/04:30pm 11.9 6.8 5.8 66 2.9 SSW 22 33 12 18 - - 0.2
02/04:00pm 10.2 5.3 5.2 71 2.3 SSW 20 32 11 17 - - 0.2
02/03:30pm 11.5 3.3 6.4 71 2.4 S 39 61 21 33 - - 0.2
02/03:00pm 13.8 6.6 4.9 55 4.2 SSW 32 50 17 27 - - 0.2
02/02:46pm 14.6 7.8 6.7 59 3.9 SSW 32 50 17 27 - - 0.2
02/02:30pm 14.6 7.5 6.4 58 4.0 SSW 33 50 18 27 - - 0.2
02/02:00pm 14.4 7.8 6.0 57 4.1 SW 30 43 16 23 - - 0.2
02/01:30pm 14.6 8.7 5.9 56 4.2 SSW 26 44 14 24 - - 0.0
02/01:00pm 14.6 9.4 7.4 62 3.6 SW 24 33 13 18 - - 0.0
02/12:30pm 13.6 8.3 6.7 63 3.4 SW 24 37 13 20 - - 0.0
02/12:00pm 12.8 8.3 7.0 68 2.8 SSW 20 32 11 17 - - 0.0
02/11:30am 12.5 8.1 7.6 72 2.4 SSW 20 32 11 17 - - 0.0
02/11:00am 13.0 9.1 8.5 74 2.3 SSW 19 32 10 17 - - 0.0
02/10:30am 12.5 8.4 7.8 73 2.3 SSW 19 32 10 17 - - 0.0
02/10:00am 12.0 8.5 8.8 81 1.6 SW 17 24 9 13 - - 0.0
02/09:30am 10.6 6.8 9.0 90 0.8 SW 19 28 10 15 - - 0.0
02/09:00am 9.2 7.0 9.2 100 0.0 SW 11 17 6 9 - - 5.4
02/08:30am 8.0 5.8 8.0 100 0.0 S 9 11 5 6 - - 5.4
02/08:00am 6.8 4.4 6.8 100 0.0 SW 9 13 5 7 - - 5.4
02/07:30am 5.1 2.3 5.1 100 0.0 WSW 9 11 5 6 - - 5.4
02/07:00am 4.8 1.5 4.8 100 0.0 SW 11 15 6 8 - - 5.4
02/06:30am 5.3 2.9 5.3 100 0.0 SSW 7 11 4 6 - - 5.4
02/06:00am 5.2 2.4 5.2 100 0.0 SW 9 9 5 5 - - 5.4
02/05:30am 6.0 3.9 6.0 100 0.0 SW 6 9 3 5 - - 5.4
02/05:00am 6.4 3.5 6.4 100 0.0 SW 11 13 6 7 - - 5.4
02/04:30am 6.8 3.6 6.8 100 0.0 SW 13 22 7 12 - - 5.4
02/04:00am 7.1 4.3 7.1 100 0.0 SW 11 15 6 8 - - 5.4
02/03:30am 7.4 5.7 7.4 100 0.0 S 6 7 3 4 - - 5.4
02/03:00am 7.0 4.6 7.0 100 0.0 WSW 9 13 5 7 - - 5.4
02/02:30am 7.6 3.4 7.6 100 0.0 WSW 19 24 10 13 - - 5.4
02/02:00am 7.7 3.9 7.7 100 0.0 WSW 17 24 9 13 - - 5.4
02/01:30am 7.9 4.6 7.9 100 0.0 WSW 15 20 8 11 - - 5.4
02/01:00am 8.2 5.3 8.2 100 0.0 W 13 17 7 9 - - 5.4
02/12:30am 8.6 5.8 8.6 100 0.0 W 13 17 7 9 - - 5.4
02/12:00am 9.0 6.3 9.0 100 0.0 W 13 19 7 10 - - 5.4
 
Date/Time
EST
Temp
°C
App
Temp
°C
Dew
Point
Rel
Hum
%
Delta-T
°C
Wind Press
QNH
hPa
Press
MSL
hPa
Rain
since 9 am
mm
Dir
 
Spd
km/h
Gust
km/h
Spd
kts
Gust
kts
01/11:30pm 9.2 6.2 9.2 100 0.0 W 15 20 8 11 - - 5.4
01/11:00pm 9.2 7.3 9.2 100 0.0 W 9 13 5 7 - - 5.2
01/10:30pm 9.2 7.3 9.2 100 0.0 W 9 13 5 7 - - 5.0
01/10:00pm 9.3 7.5 9.3 100 0.0 W 9 13 5 7 - - 5.0
01/09:30pm 9.7 7.6 9.7 100 0.0 W 11 15 6 8 - - 5.0
01/09:00pm 9.8 7.7 9.8 100 0.0 W 11 13 6 7 - - 4.8
01/08:30pm 10.1 8.1 10.1 100 0.0 W 11 15 6 8 - - 4.6
01/08:00pm 10.2 8.2 10.2 100 0.0 W 11 15 6 8 - - 4.0
01/07:30pm 10.2 8.6 10.2 100 0.0 SW 9 11 5 6 - - 2.8
01/07:00pm 10.3 8.3 10.3 100 0.0 WSW 11 15 6 8 - - 1.2
01/06:30pm 10.5 8.2 10.5 100 0.0 WSW 13 17 7 9 - - 0.2
01/06:00pm 10.5 9.0 10.5 100 0.0 W 9 15 5 8 - - 0.0
01/05:30pm 10.7 7.7 10.7 100 0.0 SW 17 20 9 11 - - 0.0
01/05:00pm 10.9 8.7 10.9 100 0.0 SSW 13 15 7 8 - - 0.0
01/04:30pm 11.6 7.7 10.7 94 0.5 WSW 22 28 12 15 - - 0.0
01/04:00pm 12.9 8.8 8.6 75 2.2 WSW 20 30 11 16 - - 0.0
01/03:30pm 15.0 10.3 7.8 62 3.6 WSW 22 37 12 20 - - 0.0
01/03:00pm 16.5 13.8 9.0 61 3.9 W 13 20 7 11 - - 0.0
01/02:30pm 17.3 15.9 9.5 60 4.1 W 7 17 4 9 - - 0.0
01/02:00pm 17.7 15.7 8.6 55 4.7 WNW 9 15 5 8 - - 0.0
01/01:30pm 18.1 14.6 7.2 49 5.5 NW 15 22 8 12 - - 0.0
01/01:00pm 17.9 16.1 9.5 58 4.4 NNE 9 15 5 8 - - 0.0
01/12:30pm 17.9 16.2 9.8 59 4.3 NNE 9 15 5 8 - - 0.0
01/12:00pm 17.1 15.5 10.2 64 3.7 NNE 9 13 5 7 - - 0.0
01/11:30am 16.4 14.3 9.8 65 3.5 NNE 11 19 6 10 - - 0.0
01/11:00am 16.6 13.7 9.8 64 3.6 NE 15 24 8 13 - - 0.0
01/10:30am 16.6 13.9 10.5 67 3.3 NE 15 24 8 13 - - 0.0
01/10:00am 15.6 13.1 9.7 68 3.1 NE 13 20 7 11 - - 0.0
01/09:30am 14.7 11.3 9.1 69 2.9 NE 17 26 9 14 - - 0.0
01/09:00am 14.3 11.5 8.7 69 2.9 NE 13 20 7 11 - - 0.0
01/08:30am 13.7 9.7 8.3 70 2.7 ENE 19 28 10 15 - - 0.0
01/08:00am 12.7 9.4 8.0 73 2.3 NE 15 20 8 11 - - 0.0
01/07:30am 11.9 8.2 7.8 76 2.0 ENE 17 24 9 13 - - 0.0
01/07:00am 10.8 7.7 7.3 79 1.7 NE 13 19 7 10 - - 0.0
01/06:30am 10.6 7.5 7.1 79 1.7 ENE 13 22 7 12 - - 0.0
01/06:00am 10.6 7.2 7.5 81 1.5 ENE 15 22 8 12 - - 0.0
01/05:30am 10.4 7.3 7.3 81 1.5 ENE 13 19 7 10 - - 0.0
01/05:00am 9.7 7.3 6.8 82 1.4 ENE 9 15 5 8 - - 0.0
01/04:30am 9.9 7.5 6.8 81 1.5 ENE 9 15 5 8 - - 0.0
01/04:00am 10.4 8.1 7.3 81 1.5 ENE 9 15 5 8 - - 0.0
01/03:30am 9.1 5.9 6.9 86 1.0 ENE 13 15 7 8 - - 0.0
01/03:00am 8.7 5.9 6.8 88 0.9 ENE 11 15 6 8 - - 0.0
01/02:30am 9.7 7.3 6.8 82 1.4 ENE 9 17 5 9 - - 0.0
01/02:00am 10.2 7.1 7.3 82 1.4 ENE 13 19 7 10 - - 0.0
01/01:30am 10.0 7.3 7.4 84 1.2 ENE 11 19 6 10 - - 0.0
01/01:00am 9.1 6.4 7.4 89 0.8 ENE 11 15 6 8 - - 0.0
01/12:30am 8.4 5.7 7.2 92 0.6 ENE 11 15 6 8 - - 0.0
01/12:00am 7.0 4.4 6.3 95 0.3 ENE 9 13 5 7 - - 0.0
 
Date/Time
EST
Temp
°C
App
Temp
°C
Dew
Point
Rel
Hum
%
Delta-T
°C
Wind Press
QNH
hPa
Press
MSL
hPa
Rain
since 9 am
mm
Dir
 
Spd
km/h
Gust
km/h
Spd
kts
Gust
kts
31/11:30pm 5.9 3.6 5.8 99 0.0 ENE 7 9 4 5 - - 0.0
31/11:00pm 5.7 3.0 5.4 98 0.1 E 9 11 5 6 - - 0.0
31/10:30pm 8.4 5.9 6.4 87 0.9 E 9 9 5 5 - - 0.0
31/10:00pm 8.7 6.0 7.2 90 0.7 E 11 13 6 7 - - 0.0
31/09:30pm 9.3 6.6 7.4 88 0.9 E 11 13 6 7 - - 0.0
31/09:00pm 9.6 6.9 9.1 97 0.2 ENE 13 17 7 9 - - 0.0
31/08:30pm 6.5 4.0 6.5 100 0.0 E 9 11 5 6 - - 0.0
31/08:00pm 5.2 2.4 5.2 100 0.0 E 9 9 5 5 - - 0.0
31/07:30pm 5.2 2.8 5.2 100 0.0 E 7 9 4 5 - - 0.0
31/07:00pm 6.3 4.1 6.2 99 0.0 ENE 7 9 4 5 - - 0.0
31/06:30pm 9.3 7.9 9.0 98 0.1 ENE 6 7 3 4 - - 0.0
31/06:00pm 11.6 10.1 8.3 80 1.6 ENE 6 7 3 4 - - 0.0
31/05:30pm 15.8 14.6 9.7 67 3.2 ENE 6 9 3 5 - - 0.0
31/05:00pm 17.3 15.5 9.5 60 4.1 ENE 9 11 5 6 - - 0.0
31/04:30pm 18.5 16.7 9.3 55 4.9 NE 9 13 5 7 - - 0.0
31/04:00pm 18.9 17.2 8.3 50 5.5 NE 7 19 4 10 - - 0.0
31/03:30pm 19.4 18.3 10.1 55 5.0 N 6 11 3 6 - - 0.0
31/03:00pm 19.4 18.0 9.6 53 5.2 NNE 7 13 4 7 - - 0.0
31/02:30pm 19.0 17.0 10.0 56 4.8 NNE 11 17 6 9 - - 0.0
31/02:00pm 18.8 17.0 9.3 54 5.0 N 9 15 5 8 - - 0.0
31/01:30pm 19.1 17.8 11.2 60 4.3 N 9 13 5 7 - - 0.0
31/01:00pm 18.3 16.8 10.4 60 4.3 N 9 15 5 8 - - 0.0
31/12:30pm 17.7 16.2 10.6 63 3.8 NNE 9 17 5 9 - - 0.0
31/12:00pm 17.7 16.3 10.8 64 3.7 N 9 13 5 7 - - 0.0
31/11:30am 16.6 15.1 10.7 68 3.2 NE 9 15 5 8 - - 0.0
31/11:00am 16.2 14.1 9.8 66 3.4 NE 11 20 6 11 - - 0.0
31/10:30am 15.4 13.5 10.4 72 2.7 NE 11 15 6 8 - - 0.0
31/10:00am 14.3 12.0 10.5 78 2.0 ENE 13 17 7 9 - - 0.0
31/09:30am 13.0 11.3 11.2 89 1.0 ENE 11 19 6 10 - - 0.0
31/09:00am 11.0 9.6 11.0 100 0.0 NE 9 11 5 6 - - 0.0
31/08:30am 8.3 7.9 8.3 100 0.0 CALM 0 0 0 0 - - 0.0
31/08:00am 4.2 2.9 4.2 100 0.0 CALM 0 6 0 3 - - 0.0
31/07:30am 0.8 -1.1 0.8 100 0.0 CALM 0 0 0 0 - - 0.0
31/07:00am -0.2 -2.2 -0.2 100 0.0 CALM 0 0 0 0 - - 0.0
31/06:30am 0.3 -1.6 0.3 100 0.0 CALM 0 0 0 0 - - 0.0
31/06:00am -0.1 -2.1 -0.1 100 0.0 CALM 0 0 0 0 - - 0.0
31/05:30am -0.3 -2.3 -0.3 100 0.0 CALM 0 0 0 0 - - 0.0
31/05:00am 0.3 -1.6 0.3 100 0.0 CALM 0 0 0 0 - - 0.0
31/04:30am 0.6 -1.3 0.6 100 0.0 CALM 0 0 0 0 - - 0.0
31/04:00am 0.6 -1.3 0.6 100 0.0 CALM 0 0 0 0 - - 0.0
31/03:30am 1.2 -0.6 1.2 100 0.0 CALM 0 0 0 0 - - 0.0
31/03:00am 1.3 -0.5 1.3 100 0.0 CALM 0 0 0 0 - - 0.0
31/02:30am 0.7 -1.2 0.7 100 0.0 CALM 0 0 0 0 - - 0.0
31/02:00am 1.3 -0.5 1.3 100 0.0 CALM 0 0 0 0 - - 0.0
31/01:30am 2.1 0.4 2.1 100 0.0 CALM 0 0 0 0 - - 0.0
31/01:00am 1.9 0.2 1.9 100 0.0 CALM 0 0 0 0 - - 0.0
31/12:30am 3.0 1.5 3.0 100 0.0 CALM 0 0 0 0 - - 0.0
31/12:00am 2.0 0.3 2.0 100 0.0 CALM 0 0 0 0 - - 0.0
 
Date/Time
EST
Temp
°C
App
Temp
°C
Dew
Point
Rel
Hum
%
Delta-T
°C
Wind Press
QNH
hPa
Press
MSL
hPa
Rain
since 9 am
mm
Dir
 
Spd
km/h
Gust
km/h
Spd
kts
Gust
kts
30/11:30pm 2.4 0.8 2.4 100 0.0 CALM 0 0 0 0 - - 0.0
30/11:00pm 2.7 1.1 2.7 100 0.0 CALM 0 0 0 0 - - 0.0
30/10:30pm 3.7 2.3 3.7 100 0.0 CALM 0 0 0 0 - - 0.0
30/10:00pm 4.1 2.8 4.1 100 0.0 CALM 0 0 0 0 - - 0.0
30/09:30pm 3.7 2.3 3.7 100 0.0 CALM 0 0 0 0 - - 0.0
30/09:00pm 3.5 2.1 3.5 100 0.0 CALM 0 0 0 0 - - 0.0
30/08:30pm 3.7 2.3 3.7 100 0.0 CALM 0 0 0 0 - - 0.0
30/08:00pm 4.8 3.6 4.8 100 0.0 CALM 0 0 0 0 - - 0.0
30/07:30pm 6.2 5.3 6.2 100 0.0 CALM 0 0 0 0 - - 0.0

Other Formats:

Comma delimited format used in spreadsheet applications
http://www.bom.gov.au/fwo/IDV60801/IDV60801.95837.axf

JavaScript Object Notation format (JSON) in row-major order
http://www.bom.gov.au/fwo/IDV60801/IDV60801.95837.json